Aviation Digital Data Service (ADDS)

Output produced by METARs form (0645 UTC 01 August 2021)
found at http://www.aviationweather.gov/metar/data/
 
KGXY 010556Z 02003KT 6SM BR CLR 18/16 A3041 RMK AO2 SLP263 T01780161 10239 20178 51007